Winter Garden, FL (34777)

12:16 PM EDT on April 25, 2015 (GMT -0400)
APRSWXNET | | Change Station
CLOSE
Current Station
Personal Weather Station
Location: Winter Garden, FL
Elevation: 120 ft
Nearby Weather Stations

Elev 120 ft 28.50 °N, 81.60 °W | Updated 31 minutes ago

Partly Cloudy
Partly Cloudy
84 °F
Feels Like 91 °F
N
1
Wind Variable Wind from NNW
Gusts 4.0 mph

Today
High -- | Low -- °F
--% Chance of Precip.
Yesterday
High -- | Low -- °F
Precip. -- in
6:51 AM 7:57 PM
Waxing Crescent, 47% visible
Pressure 29.96 in
Visibility 10.0 miles
Clouds Scattered Clouds 3000 ft
Mostly Cloudy 7000 ft
Heat Index 91 °F
Dew Point 74 °F
Humidity 73%
Rainfall in
Snow Depth Not available.
UV 7 out of 12
Pollen 8.40 out of 12
Air Quality Not available.
Flu Activity Local Activity
METAR KISM 251550Z 20006KT 10SM SCT030 BKN070 28/22 A2996

More Conditions Fewer Conditions

Pressure 29.96 in
Visibility 10.0 miles
Clouds Scattered Clouds 3000 ft
Mostly Cloudy 7000 ft
Heat Index 91 °F
Dew Point 74 °F
Humidity 73%
Rainfall in
Snow Depth Not available.
UV 7 out of 12
Pollen 8.40 out of 12
Air Quality Not available.
Flu Activity Local Activity
METAR KISM 251550Z 20006KT 10SM SCT030 BKN070 28/22 A2996

More Conditions Fewer Conditions

Nowcast | as of 11:26 am EDT on April 25, 2015

isolated showers and lightning storms possible late this afternoon... Southeast winds will allow temperatures to climb into the upper 80s and lower 90s. A few showers and isolated lightning storms are expected to develop along and ahead of a West Coast sea breeze as it moves inland late this afternooon. A few strong storms will be possible late this afternoon...especially near the East Coast...with gusty winds in excess of 40 mph...frequent lightning and torrential rainfall possible. Ocean conditions will produce a moderate hazard for development of rip currents within the surf zone. When arriving at the beach check with lifeguards for the latest ocean conditions and never swim alone. Additional details...including graphics are available online at: http://www.Srh.NOAA.Gov/mlb/blog.Php

×

10-Day Weather Forecast

Almanac

Astronomy

Apr. 25, 2015 Rise Set
Actual Time
Civil Twilight
Nautical Twilight
Astronomical Twilight
Moon
Length of Visible Light
Length of Day
Tomorrow will be .
, % of the Moon is Illuminated

Today's Extremes

State Highs State Lows

Community

WunderPhotos

Upload Photos

1,816,731 photos uploaded!

WunderBlogs® & News

Nearby

Air Quality

  Air Quality AQ Index Pollutant
Not available.

Snow Depth

Station Depth Elevation

Earthquake Activity

City Distance Mag. Time & Date
Minimum magnitude displayed is 2.5.

Coastal Water Temperatures

Place Temperature

Stations

Nearby Weather Stations

Station Location Temp. Windchill Dew Point Humidity Wind Precip. Elev Updated Type